Time;durP1;ratioP1;P1;durP2;ratioP2;P2;SDS_P1;SDS_P2;PMS_P1;PMS_P2;Temp;Humidity;BMP_temperature;BMP_pressure;BME280_temperature;BME280_humidity;BME280_pressure;Samples;Min_cycle;Max_cycle;Signal;HPM_P1;HPM_P2
2023/04/29 00:01:25;;;;;;;11.38;2.92;;;;;;;;;;5047083;27;20058;-63
2023/04/29 00:03:55;;;;;;;7.50;2.70;;;;;;;;;;5133888;27;20027;-63
2023/04/29 00:06:27;;;;;;;8.45;2.50;;;;;;;;;;5097909;27;20047;-63
2023/04/29 00:08:57;;;;;;;5.50;2.80;;;;;;;;;;5133729;27;20047;-63
2023/04/29 00:11:27;;;;;;;9.35;2.88;;;;;;;;;;5134078;27;20153;-64
2023/04/29 00:13:58;;;;;;;6.82;2.55;;;;;;;;;;5133868;27;20054;-63
2023/04/29 00:16:28;;;;;;;15.20;2.78;;;;;;;;;;5020123;28;20500;-63
2023/04/29 00:18:58;;;;;;;6.93;2.40;;;;;;;;;;5070064;28;20053;-62
2023/04/29 00:21:30;;;;;;;8.98;2.88;;;;;;;;;;5069988;28;20059;-63
2023/04/29 00:24:00;;;;;;;12.38;2.78;;;;;;;;;;5070137;28;20044;-64
2023/04/29 00:26:32;;;;;;;7.28;2.60;;;;;;;;;;5049392;28;20517;-64
2023/04/29 00:29:02;;;;;;;9.38;3.08;;;;;;;;;;5033320;28;20056;-64
2023/04/29 00:31:32;;;;;;;8.65;2.92;;;;;;;;;;5016962;28;20060;-63
2023/04/29 00:34:03;;;;;;;5.50;2.50;;;;;;;;;;5029280;28;20056;-64
2023/04/29 00:36:33;;;;;;;6.32;2.60;;;;;;;;;;5049426;28;20044;-65
2023/04/29 00:39:03;;;;;;;5.88;2.80;;;;;;;;;;5049468;28;20570;-63
2023/04/29 00:41:33;;;;;;;6.88;2.55;;;;;;;;;;5049720;28;20067;-64
2023/04/29 00:44:04;;;;;;;8.23;2.67;;;;;;;;;;5016130;28;20061;-63
2023/04/29 00:46:34;;;;;;;9.40;2.50;;;;;;;;;;5049791;28;20072;-63
2023/04/29 00:49:04;;;;;;;8.77;2.45;;;;;;;;;;5029283;28;20049;-62
2023/04/29 00:51:36;;;;;;;8.90;2.78;;;;;;;;;;5008911;28;20438;-63
2023/04/29 00:54:07;;;;;;;7.63;2.97;;;;;;;;;;4999768;28;20522;-63
2023/04/29 00:56:42;;;;;;;6.30;2.90;;;;;;;;;;4989916;28;20062;-63
2023/04/29 00:59:14;;;;;;;5.63;2.60;;;;;;;;;;4957968;28;20065;-62
2023/04/29 01:01:47;;;;;;;7.78;3.17;;;;;;;;;;5029342;28;20094;-63
2023/04/29 01:04:19;;;;;;;7.88;2.45;;;;;;;;;;4986779;28;20076;-63
2023/04/29 01:07:03;;;;;;;6.10;2.60;;;;;;;;;;4993804;28;20061;-63
2023/04/29 01:09:43;;;;;;;8.07;2.60;;;;;;;;;;4986209;28;20057;-64
2023/04/29 01:12:24;;;;;;;8.63;2.60;;;;;;;;;;4962178;28;20417;-64
2023/04/29 01:15:09;;;;;;;7.43;2.75;;;;;;;;;;4939043;28;20047;-65
2023/04/29 01:17:45;;;;;;;8.23;3.00;;;;;;;;;;4950458;28;20063;-63
2023/04/29 01:20:20;;;;;;;6.63;2.80;;;;;;;;;;4969688;28;20415;-64
2023/04/29 01:22:51;;;;;;;7.40;2.95;;;;;;;;;;4969547;28;20411;-64
2023/04/29 01:25:24;;;;;;;7.28;2.63;;;;;;;;;;4969826;28;20105;-63
2023/04/29 01:28:19;;;;;;;7.65;2.45;;;;;;;;;;4969759;28;20164;-64
2023/04/29 01:31:44;;;;;;;5.35;3.00;;;;;;;;;;4931139;29;20058;-63
2023/04/29 01:34:26;;;;;;;6.93;3.10;;;;;;;;;;4912080;29;20063;-64
2023/04/29 01:37:03;;;;;;;6.32;2.50;;;;;;;;;;4916614;29;20567;-63
2023/04/29 01:40:05;;;;;;;7.70;2.38;;;;;;;;;;4900563;29;20114;-63
2023/04/29 01:42:57;;;;;;;7.55;3.42;;;;;;;;;;4912052;29;20056;-64
2023/04/29 01:45:30;;;;;;;5.13;2.65;;;;;;;;;;4859320;29;20061;-63
2023/04/29 01:48:03;;;;;;;8.15;3.17;;;;;;;;;;4874248;29;20502;-64
2023/04/29 01:50:36;;;;;;;8.52;2.90;;;;;;;;;;4841673;29;20054;-64
2023/04/29 01:53:12;;;;;;;17.00;3.45;;;;;;;;;;4834046;29;20058;-63
2023/04/29 01:55:42;;;;;;;11.90;3.00;;;;;;;;;;4819344;29;20074;-64
2023/04/29 01:58:23;;;;;;;13.63;3.40;;;;;;;;;;4835362;29;20061;-64
2023/04/29 02:01:11;;;;;;;9.25;3.72;;;;;;;;;;4819221;29;20127;-64
2023/04/29 02:03:42;;;;;;;9.15;3.65;;;;;;;;;;4857023;29;20045;-64
2023/04/29 02:06:13;;;;;;;6.20;3.22;;;;;;;;;;4874541;29;20060;-63
2023/04/29 02:08:45;;;;;;;9.65;3.33;;;;;;;;;;4851544;29;20404;-64
2023/04/29 02:11:16;;;;;;;11.18;3.75;;;;;;;;;;4831842;29;20061;-63
2023/04/29 02:13:47;;;;;;;9.00;3.30;;;;;;;;;;4865842;29;20511;-63
2023/04/29 02:16:18;;;;;;;9.13;3.35;;;;;;;;;;4775488;29;20138;-64
2023/04/29 02:19:03;;;;;;;6.47;2.83;;;;;;;;;;4878063;29;20053;-63
2023/04/29 02:21:34;;;;;;;5.85;2.90;;;;;;;;;;4878163;29;20082;-64
2023/04/29 02:24:04;;;;;;;6.72;3.03;;;;;;;;;;4896593;29;20048;-64
2023/04/29 02:26:34;;;;;;;5.32;2.90;;;;;;;;;;4911697;29;20192;-64
2023/04/29 02:29:04;;;;;;;9.60;3.55;;;;;;;;;;4896520;29;20053;-64
2023/04/29 02:31:35;;;;;;;8.77;3.60;;;;;;;;;;4923988;29;20056;-63
2023/04/29 02:34:05;;;;;;;8.18;3.50;;;;;;;;;;4888448;29;20057;-63
2023/04/29 02:36:35;;;;;;;6.47;3.00;;;;;;;;;;4877762;29;20053;-64
2023/04/29 02:39:06;;;;;;;7.15;2.88;;;;;;;;;;4892962;29;20045;-64
2023/04/29 02:41:36;;;;;;;15.38;3.75;;;;;;;;;;4904201;29;21007;-64
2023/04/29 02:44:06;;;;;;;7.50;3.22;;;;;;;;;;4916485;29;20065;-63
2023/04/29 02:46:38;;;;;;;8.05;3.55;;;;;;;;;;4892879;29;20080;-64
2023/04/29 02:49:09;;;;;;;9.82;3.47;;;;;;;;;;4867618;29;20049;-64
2023/04/29 02:51:40;;;;;;;6.97;3.20;;;;;;;;;;4918162;29;20058;-63
2023/04/29 02:54:10;;;;;;;10.48;3.42;;;;;;;;;;4945176;29;20054;-64
2023/04/29 02:56:43;;;;;;;9.32;3.90;;;;;;;;;;4937426;29;20572;-64
2023/04/29 02:59:13;;;;;;;6.90;3.10;;;;;;;;;;4928021;29;20460;-64
2023/04/29 03:01:43;;;;;;;9.70;3.88;;;;;;;;;;4933605;29;20408;-65
2023/04/29 03:04:13;;;;;;;8.48;3.30;;;;;;;;;;4914882;29;20056;-64
2023/04/29 03:06:44;;;;;;;15.23;5.10;;;;;;;;;;4915142;29;20168;-63
2023/04/29 03:09:14;;;;;;;9.07;3.25;;;;;;;;;;4908318;29;20078;-64
2023/04/29 03:11:46;;;;;;;8.38;3.10;;;;;;;;;;4952692;29;20043;-64
2023/04/29 03:14:17;;;;;;;7.55;3.28;;;;;;;;;;4933495;29;20062;-64
2023/04/29 03:16:48;;;;;;;6.90;4.15;;;;;;;;;;4922869;29;20056;-64
2023/04/29 03:19:19;;;;;;;8.90;3.78;;;;;;;;;;4933595;29;20127;-64
2023/04/29 03:21:50;;;;;;;10.88;3.20;;;;;;;;;;4901493;29;20067;-64
2023/04/29 03:24:22;;;;;;;7.47;3.25;;;;;;;;;;4933594;29;20058;-64
2023/04/29 03:26:52;;;;;;;13.77;3.10;;;;;;;;;;4930017;28;20530;-63
2023/04/29 03:29:22;;;;;;;10.20;3.72;;;;;;;;;;4936644;29;20408;-64
2023/04/29 03:31:53;;;;;;;7.50;3.28;;;;;;;;;;4943441;29;20496;-64
2023/04/29 03:34:24;;;;;;;10.80;3.30;;;;;;;;;;4936955;29;20054;-64
2023/04/29 03:37:09;;;;;;;6.43;3.97;;;;;;;;;;4914448;29;20470;-64
2023/04/29 03:39:45;;;;;;;10.05;3.42;;;;;;;;;;4926663;29;20147;-64
2023/04/29 03:42:16;;;;;;;14.80;3.53;;;;;;;;;;4926600;29;20067;-64
2023/04/29 03:44:47;;;;;;;9.52;3.90;;;;;;;;;;4926204;29;20056;-65
2023/04/29 03:47:17;;;;;;;14.27;4.25;;;;;;;;;;4902028;29;20063;-64
2023/04/29 03:49:47;;;;;;;10.45;3.40;;;;;;;;;;4901991;29;20080;-64
2023/04/29 03:52:17;;;;;;;9.65;3.67;;;;;;;;;;4932909;29;20516;-64
2023/04/29 03:54:50;;;;;;;12.85;4.07;;;;;;;;;;4913946;29;20067;-64
2023/04/29 03:57:20;;;;;;;11.18;3.65;;;;;;;;;;4917229;29;20048;-63
2023/04/29 03:59:52;;;;;;;8.02;3.70;;;;;;;;;;4932829;29;20052;-64
2023/04/29 04:02:24;;;;;;;9.77;3.75;;;;;;;;;;4944788;28;20913;-66
2023/04/29 04:04:55;;;;;;;8.10;3.90;;;;;;;;;;4952058;28;20047;-63
2023/04/29 04:07:25;;;;;;;6.95;3.25;;;;;;;;;;4924133;29;20066;-61
2023/04/29 04:10:19;;;;;;;9.65;4.78;;;;;;;;;;4914209;29;20546;-64
2023/04/29 04:12:49;;;;;;;13.25;3.67;;;;;;;;;;4913847;29;20059;-64
2023/04/29 04:15:21;;;;;;;9.52;4.90;;;;;;;;;;4887459;29;20057;-63
2023/04/29 04:17:51;;;;;;;8.63;4.10;;;;;;;;;;4928627;29;20071;-63
2023/04/29 04:20:21;;;;;;;10.82;4.15;;;;;;;;;;4932376;29;20055;-62
2023/04/29 04:22:53;;;;;;;7.68;4.20;;;;;;;;;;4944318;28;20172;-63
2023/04/29 04:25:29;;;;;;;11.02;3.88;;;;;;;;;;4951541;28;20055;-64
2023/04/29 04:28:17;;;;;;;13.57;4.35;;;;;;;;;;4895759;28;20080;-62
2023/04/29 04:31:01;;;;;;;9.05;4.00;;;;;;;;;;4898674;29;20052;-63
2023/04/29 04:33:31;;;;;;;8.80;4.35;;;;;;;;;;4947165;29;20428;-63
2023/04/29 04:36:02;;;;;;;10.85;3.78;;;;;;;;;;4966946;28;20555;-63
2023/04/29 04:38:32;;;;;;;10.25;4.03;;;;;;;;;;4970804;28;20050;-63
2023/04/29 04:41:07;;;;;;;8.75;4.18;;;;;;;;;;4899631;29;20060;-64
2023/04/29 04:43:40;;;;;;;8.35;4.13;;;;;;;;;;4895671;29;20057;-63
2023/04/29 04:46:18;;;;;;;10.57;4.43;;;;;;;;;;4927209;29;20503;-63
2023/04/29 04:49:05;;;;;;;12.55;4.53;;;;;;;;;;4875726;29;20053;-63
2023/04/29 04:51:44;;;;;;;13.88;4.28;;;;;;;;;;4875325;29;20532;-62
2023/04/29 04:54:14;;;;;;;9.40;4.20;;;;;;;;;;4853337;29;20065;-63
2023/04/29 04:56:45;;;;;;;10.95;4.18;;;;;;;;;;4838457;29;20075;-63
2023/04/29 04:59:15;;;;;;;11.10;3.83;;;;;;;;;;4823368;29;20069;-65
2023/04/29 05:01:45;;;;;;;11.77;4.15;;;;;;;;;;4817834;29;20061;-63
2023/04/29 05:04:15;;;;;;;11.65;4.68;;;;;;;;;;4852845;29;20058;-63
2023/04/29 05:06:46;;;;;;;7.30;3.70;;;;;;;;;;4868729;29;20065;-63
2023/04/29 05:09:19;;;;;;;7.45;4.13;;;;;;;;;;4867492;29;20078;-63
2023/04/29 05:11:50;;;;;;;6.95;4.15;;;;;;;;;;4842682;29;20457;-63
2023/04/29 05:14:20;;;;;;;10.70;3.72;;;;;;;;;;4841086;29;20045;-63
2023/04/29 05:16:51;;;;;;;6.97;4.28;;;;;;;;;;4848263;29;20059;-64
2023/04/29 05:19:22;;;;;;;8.20;3.72;;;;;;;;;;4840852;29;20069;-63
2023/04/29 05:21:52;;;;;;;7.88;3.55;;;;;;;;;;4837595;29;20050;-65
2023/04/29 05:24:22;;;;;;;7.20;3.47;;;;;;;;;;4871689;29;20060;-63
2023/04/29 05:26:53;;;;;;;6.80;3.60;;;;;;;;;;4855955;29;20577;-63
2023/04/29 05:29:23;;;;;;;9.15;3.80;;;;;;;;;;4807341;29;20050;-63
2023/04/29 05:31:58;;;;;;;6.50;3.75;;;;;;;;;;4831935;29;20050;-63
2023/04/29 05:34:29;;;;;;;7.13;3.60;;;;;;;;;;4827768;29;20059;-63
2023/04/29 05:36:59;;;;;;;6.97;3.55;;;;;;;;;;4856004;29;20494;-63
2023/04/29 05:39:31;;;;;;;10.65;4.20;;;;;;;;;;4853081;29;20177;-63
2023/04/29 05:42:11;;;;;;;9.00;3.67;;;;;;;;;;4892973;29;20450;-63
2023/04/29 05:44:46;;;;;;;8.65;3.85;;;;;;;;;;4900218;29;20044;-63
2023/04/29 05:47:16;;;;;;;7.65;3.53;;;;;;;;;;4893542;29;20434;-62
2023/04/29 05:49:47;;;;;;;9.10;4.13;;;;;;;;;;4893550;29;20060;-63
2023/04/29 05:52:17;;;;;;;7.78;3.95;;;;;;;;;;4957965;28;20062;-63
2023/04/29 05:54:49;;;;;;;8.65;3.72;;;;;;;;;;4988826;28;20054;-63
2023/04/29 05:57:19;;;;;;;7.47;3.95;;;;;;;;;;4961266;28;20055;-63
2023/04/29 05:59:49;;;;;;;8.02;3.58;;;;;;;;;;4915568;29;20049;-63
2023/04/29 06:02:20;;;;;;;9.02;4.05;;;;;;;;;;4862331;29;20056;-62
2023/04/29 06:04:52;;;;;;;7.25;3.35;;;;;;;;;;4930972;29;20047;-63
2023/04/29 06:07:39;;;;;;;13.77;3.90;;;;;;;;;;4908045;29;20072;-63
2023/04/29 06:10:32;;;;;;;7.15;3.42;;;;;;;;;;4912029;29;20129;-63
2023/04/29 06:13:03;;;;;;;9.27;4.03;;;;;;;;;;4898773;29;20053;-63
2023/04/29 06:15:34;;;;;;;7.50;3.88;;;;;;;;;;4892843;29;20505;-63
2023/04/29 06:18:04;;;;;;;7.82;3.72;;;;;;;;;;4911971;29;20069;-63
2023/04/29 06:20:34;;;;;;;7.90;3.90;;;;;;;;;;4908412;29;20432;-62
2023/04/29 06:23:06;;;;;;;11.50;4.22;;;;;;;;;;4889096;29;20552;-63
2023/04/29 06:25:36;;;;;;;12.23;4.43;;;;;;;;;;4889627;29;20111;-62
2023/04/29 06:28:08;;;;;;;12.90;4.22;;;;;;;;;;4911909;29;20056;-62
2023/04/29 06:30:38;;;;;;;15.52;5.60;;;;;;;;;;4916009;29;20052;-62
2023/04/29 06:33:09;;;;;;;13.73;5.43;;;;;;;;;;4878898;29;20053;-62
2023/04/29 06:35:42;;;;;;;10.45;4.60;;;;;;;;;;4880481;29;20044;-63
2023/04/29 06:38:30;;;;;;;;;;;;;;;;;;4893687;29;20052;-63
2023/04/29 06:41:14;;;;;;;9.18;4.22;;;;;;;;;;4911871;29;19923;-63
2023/04/29 06:44:00;;;;;;;11.82;5.53;;;;;;;;;;4898158;29;20473;-65
2023/04/29 06:46:51;;;;;;;9.38;4.53;;;;;;;;;;4911805;29;20520;-63
2023/04/29 06:49:51;;;;;;;8.95;4.25;;;;;;;;;;4873253;29;20072;-63
2023/04/29 06:52:22;;;;;;;9.07;3.72;;;;;;;;;;4877615;29;20057;-63
2023/04/29 06:54:55;;;;;;;10.02;4.32;;;;;;;;;;4874498;29;20065;-63
2023/04/29 06:57:26;;;;;;;12.13;4.20;;;;;;;;;;4871478;29;20050;-63
2023/04/29 06:59:56;;;;;;;10.57;5.15;;;;;;;;;;4877183;29;20052;-63
2023/04/29 07:02:26;;;;;;;12.50;5.40;;;;;;;;;;4876684;29;20048;-63
2023/04/29 07:04:56;;;;;;;9.50;4.90;;;;;;;;;;4891864;29;20387;-63
2023/04/29 07:07:27;;;;;;;8.20;3.83;;;;;;;;;;4907442;29;20061;-62
2023/04/29 07:09:57;;;;;;;11.98;3.95;;;;;;;;;;4834555;29;20176;-63
2023/04/29 07:12:28;;;;;;;9.93;4.65;;;;;;;;;;4879325;29;20052;-63
2023/04/29 07:14:58;;;;;;;9.70;5.13;;;;;;;;;;4861791;29;20556;-63
2023/04/29 07:17:30;;;;;;;11.32;4.70;;;;;;;;;;4897761;29;20053;-63
2023/04/29 07:20:00;;;;;;;11.07;4.32;;;;;;;;;;4942237;29;20053;-62
2023/04/29 07:22:30;;;;;;;9.45;4.53;;;;;;;;;;4933614;29;20051;-63
2023/04/29 07:25:01;;;;;;;13.68;3.90;;;;;;;;;;4917849;29;20043;-63
2023/04/29 07:27:34;;;;;;;9.05;3.53;;;;;;;;;;4935542;29;20058;-63
2023/04/29 07:30:05;;;;;;;6.13;2.78;;;;;;;;;;4962110;28;20062;-63
2023/04/29 07:32:36;;;;;;;7.97;3.38;;;;;;;;;;4967934;28;20059;-63
2023/04/29 07:35:06;;;;;;;7.60;3.30;;;;;;;;;;4911509;29;20433;-63
2023/04/29 07:37:36;;;;;;;5.35;3.08;;;;;;;;;;4971609;28;20058;-63
2023/04/29 07:40:07;;;;;;;8.02;3.78;;;;;;;;;;4971999;28;20055;-63
2023/04/29 07:42:38;;;;;;;8.00;3.20;;;;;;;;;;4991040;28;20050;-63
2023/04/29 07:45:09;;;;;;;6.28;3.10;;;;;;;;;;4971648;28;20050;-63
2023/04/29 07:47:39;;;;;;;6.53;3.08;;;;;;;;;;4974543;28;20061;-64
2023/04/29 07:50:09;;;;;;;9.63;3.72;;;;;;;;;;4911546;29;20060;-64
2023/04/29 07:52:39;;;;;;;6.70;3.17;;;;;;;;;;4933429;29;20048;-63
2023/04/29 07:55:10;;;;;;;6.47;3.30;;;;;;;;;;4932979;29;20051;-63
2023/04/29 07:57:40;;;;;;;6.80;2.90;;;;;;;;;;4923921;29;20056;-63
2023/04/29 08:00:11;;;;;;;7.68;3.25;;;;;;;;;;4910662;29;20053;-64
2023/04/29 08:02:51;;;;;;;7.35;3.20;;;;;;;;;;4861271;29;20060;-63
2023/04/29 08:05:22;;;;;;;5.18;2.80;;;;;;;;;;4884831;29;20075;-64
2023/04/29 08:07:53;;;;;;;5.20;2.90;;;;;;;;;;4903917;29;20057;-63
2023/04/29 08:10:26;;;;;;;8.48;3.05;;;;;;;;;;4905524;29;20050;-63
2023/04/29 08:12:56;;;;;;;5.10;2.65;;;;;;;;;;4879280;29;20044;-63
2023/04/29 08:15:26;;;;;;;5.80;2.90;;;;;;;;;;4895182;29;20493;-63
2023/04/29 08:17:56;;;;;;;7.90;3.20;;;;;;;;;;4894891;29;20653;-65
2023/04/29 08:20:27;;;;;;;10.77;3.50;;;;;;;;;;4911535;29;20505;-63
2023/04/29 08:22:59;;;;;;;5.95;2.90;;;;;;;;;;4916086;29;20177;-63
2023/04/29 08:25:29;;;;;;;8.40;3.00;;;;;;;;;;4927600;29;20500;-63
2023/04/29 08:27:59;;;;;;;7.00;2.67;;;;;;;;;;4951762;29;20533;-64
2023/04/29 08:30:29;;;;;;;8.77;3.35;;;;;;;;;;4951804;29;20059;-63
2023/04/29 08:33:00;;;;;;;8.65;3.40;;;;;;;;;;4953616;28;20519;-63
2023/04/29 08:35:30;;;;;;;7.95;3.63;;;;;;;;;;4954554;28;20055;-64
2023/04/29 08:38:01;;;;;;;6.82;3.75;;;;;;;;;;5009252;28;20049;-63
2023/04/29 08:40:34;;;;;;;7.15;3.15;;;;;;;;;;5009649;28;20057;-62
2023/04/29 08:43:05;;;;;;;6.88;3.25;;;;;;;;;;5009854;28;20054;-62
2023/04/29 08:45:36;;;;;;;7.30;3.28;;;;;;;;;;5002871;28;20057;-63
2023/04/29 08:48:07;;;;;;;5.35;3.08;;;;;;;;;;4997102;28;20049;-63
2023/04/29 08:50:41;;;;;;;11.07;3.58;;;;;;;;;;5039765;28;20057;-62
2023/04/29 08:53:13;;;;;;;9.23;2.90;;;;;;;;;;5049630;28;20065;-62
2023/04/29 08:55:45;;;;;;;8.95;3.17;;;;;;;;;;5049581;28;20041;-63
2023/04/29 08:58:18;;;;;;;9.38;3.72;;;;;;;;;;5072512;28;20508;-62
2023/04/29 09:00:48;;;;;;;8.63;3.35;;;;;;;;;;5039492;28;20048;-62
2023/04/29 09:03:51;;;;;;;7.50;3.08;;;;;;;;;;5056531;28;20052;-63
2023/04/29 09:06:21;;;;;;;12.32;3.17;;;;;;;;;;5032587;28;20059;-63
2023/04/29 09:08:51;;;;;;;9.55;2.75;;;;;;;;;;4999501;28;20060;-63
2023/04/29 09:11:23;;;;;;;8.30;3.28;;;;;;;;;;5032477;28;20056;-62
2023/04/29 09:13:59;;;;;;;4.80;2.67;;;;;;;;;;4999063;28;20064;-65
2023/04/29 09:16:31;;;;;;;6.80;3.10;;;;;;;;;;5048883;28;20060;-62
2023/04/29 09:19:01;;;;;;;6.97;3.00;;;;;;;;;;5032065;28;20197;-62
2023/04/29 09:21:31;;;;;;;6.95;3.88;;;;;;;;;;5029248;28;20509;-62
2023/04/29 09:24:02;;;;;;;7.88;4.20;;;;;;;;;;4996563;28;20064;-63
2023/04/29 09:26:43;;;;;;;7.28;4.18;;;;;;;;;;5013144;28;20042;-63
2023/04/29 09:29:15;;;;;;;8.73;4.03;;;;;;;;;;4963459;28;20533;-63
2023/04/29 09:31:45;;;;;;;8.07;3.80;;;;;;;;;;4996231;28;20049;-64
2023/04/29 09:34:15;;;;;;;6.32;3.00;;;;;;;;;;5028586;28;20049;-63
2023/04/29 09:36:53;;;;;;;8.38;3.53;;;;;;;;;;5028966;28;20053;-62
2023/04/29 09:39:25;;;;;;;9.15;4.25;;;;;;;;;;5028569;28;20045;-62
2023/04/29 09:42:01;;;;;;;10.32;5.68;;;;;;;;;;4999445;28;20079;-63
2023/04/29 09:44:34;;;;;;;14.05;6.05;;;;;;;;;;5068232;28;20139;-61
2023/04/29 09:47:06;;;;;;;13.23;5.63;;;;;;;;;;5018270;28;20420;-62
2023/04/29 09:49:41;;;;;;;9.70;5.10;;;;;;;;;;5036014;28;20060;-62
2023/04/29 09:52:15;;;;;;;11.30;5.13;;;;;;;;;;5068451;28;20067;-63
2023/04/29 09:54:46;;;;;;;9.88;5.05;;;;;;;;;;5037038;28;20127;-62
2023/04/29 09:57:17;;;;;;;13.00;6.18;;;;;;;;;;5068160;28;20044;-62
2023/04/29 09:59:47;;;;;;;15.35;6.30;;;;;;;;;;5068349;28;20053;-62
2023/04/29 10:02:18;;;;;;;14.38;5.30;;;;;;;;;;5052002;28;20056;-62
2023/04/29 10:04:57;;;;;;;11.73;4.95;;;;;;;;;;5068547;28;20044;-62
2023/04/29 10:07:28;;;;;;;10.93;4.88;;;;;;;;;;5068297;28;20067;-62
2023/04/29 10:09:58;;;;;;;8.60;4.85;;;;;;;;;;5020085;28;20056;-62
2023/04/29 10:12:28;;;;;;;11.57;4.88;;;;;;;;;;5051223;28;20064;-62
2023/04/29 10:15:01;;;;;;;10.50;6.10;;;;;;;;;;5035957;28;20416;-62
2023/04/29 10:17:52;;;;;;;11.75;6.25;;;;;;;;;;5034382;28;20052;-64
2023/04/29 10:20:24;;;;;;;8.35;4.68;;;;;;;;;;5052498;28;20048;-63
2023/04/29 10:22:55;;;;;;;9.25;4.90;;;;;;;;;;5091913;28;20063;-63
2023/04/29 10:25:27;;;;;;;14.00;6.20;;;;;;;;;;5113733;28;20048;-63
2023/04/29 10:28:01;;;;;;;12.32;5.70;;;;;;;;;;5063266;28;20059;-63
2023/04/29 10:30:31;;;;;;;;;;;;;;;;;;5096625;28;20047;-63
2023/04/29 10:33:03;;;;;;;10.00;4.40;;;;;;;;;;5045628;28;19931;-63
2023/04/29 10:35:33;;;;;;;10.27;4.80;;;;;;;;;;5095574;28;20530;-64
2023/04/29 10:38:20;;;;;;;12.93;5.50;;;;;;;;;;5071798;28;20052;-64
2023/04/29 10:40:52;;;;;;;10.80;4.78;;;;;;;;;;5055177;28;20045;-63
2023/04/29 10:43:24;;;;;;;9.57;4.70;;;;;;;;;;5021810;28;20053;-64
2023/04/29 10:46:19;;;;;;;12.10;5.00;;;;;;;;;;5072140;28;20053;-64
2023/04/29 10:48:55;;;;;;;11.23;4.80;;;;;;;;;;5054843;28;20427;-64
2023/04/29 10:51:39;;;;;;;10.85;4.55;;;;;;;;;;5071702;28;20055;-63
2023/04/29 10:54:16;;;;;;;11.40;5.03;;;;;;;;;;5022008;28;20059;-64
2023/04/29 10:56:54;;;;;;;12.70;5.30;;;;;;;;;;5071403;28;20111;-65
2023/04/29 10:59:35;;;;;;;10.57;5.50;;;;;;;;;;5071486;28;20103;-64
2023/04/29 11:02:05;;;;;;;18.73;5.45;;;;;;;;;;5038644;28;20045;-63
2023/04/29 11:05:08;;;;;;;13.45;5.93;;;;;;;;;;5038862;28;20411;-64
2023/04/29 11:07:39;;;;;;;15.63;5.18;;;;;;;;;;5086685;28;20059;-63
2023/04/29 11:10:09;;;;;;;14.20;5.28;;;;;;;;;;5076975;27;20054;-66
2023/04/29 11:12:39;;;;;;;9.60;5.13;;;;;;;;;;5135319;27;20047;-63
2023/04/29 11:15:10;;;;;;;10.30;4.35;;;;;;;;;;5042654;28;20060;-63
2023/04/29 11:17:40;;;;;;;10.40;5.45;;;;;;;;;;5074924;28;20420;-63
2023/04/29 11:20:13;;;;;;;10.82;5.32;;;;;;;;;;5091179;28;20508;-64
2023/04/29 11:22:51;;;;;;;9.60;4.47;;;;;;;;;;5034831;28;20520;-63
2023/04/29 11:25:25;;;;;;;9.70;4.47;;;;;;;;;;4970228;28;20064;-64
2023/04/29 11:27:58;;;;;;;10.70;5.03;;;;;;;;;;5014332;28;20053;-63
2023/04/29 11:30:29;;;;;;;10.38;4.82;;;;;;;;;;4998209;28;20060;-64
2023/04/29 11:32:59;;;;;;;8.98;4.40;;;;;;;;;;4981959;28;20064;-64
2023/04/29 11:35:30;;;;;;;14.07;5.88;;;;;;;;;;4998099;28;20061;-64
2023/04/29 11:38:02;;;;;;;10.60;5.78;;;;;;;;;;5030737;28;20045;-63
2023/04/29 11:40:32;;;;;;;16.10;7.25;;;;;;;;;;5030902;28;20061;-64
2023/04/29 11:43:02;;;;;;;19.65;6.85;;;;;;;;;;5014671;28;20057;-63
2023/04/29 11:45:35;;;;;;;10.40;6.00;;;;;;;;;;5030922;28;20057;-64
2023/04/29 11:48:06;;;;;;;11.38;6.00;;;;;;;;;;5031366;28;20057;-63
2023/04/29 11:50:36;;;;;;;15.40;6.18;;;;;;;;;;5030682;28;20046;-64
2023/04/29 11:53:07;;;;;;;13.82;5.13;;;;;;;;;;5056303;28;20408;-64
2023/04/29 11:55:38;;;;;;;10.60;5.32;;;;;;;;;;5070811;28;20044;-61
2023/04/29 11:58:09;;;;;;;9.88;4.75;;;;;;;;;;5070461;28;20063;-63
2023/04/29 12:00:39;;;;;;;9.18;4.40;;;;;;;;;;5057869;28;20057;-62
2023/04/29 12:03:19;;;;;;;11.93;5.10;;;;;;;;;;5034099;28;20450;-63
2023/04/29 12:05:54;;;;;;;8.20;4.90;;;;;;;;;;5035919;28;20409;-65
2023/04/29 12:08:26;;;;;;;9.18;4.30;;;;;;;;;;5092245;28;20056;-64
2023/04/29 12:10:58;;;;;;;11.70;6.00;;;;;;;;;;5092950;28;20051;-66
2023/04/29 12:13:30;;;;;;;7.93;3.65;;;;;;;;;;5093098;28;20059;-64
2023/04/29 12:16:00;;;;;;;7.40;3.55;;;;;;;;;;5093118;28;20047;-64
2023/04/29 12:18:30;;;;;;;7.32;3.88;;;;;;;;;;5107280;28;20055;-63
2023/04/29 12:21:01;;;;;;;8.40;3.33;;;;;;;;;;5092565;28;20039;-63
2023/04/29 12:23:31;;;;;;;5.57;3.08;;;;;;;;;;5092868;28;20048;-63
2023/04/29 12:26:01;;;;;;;7.40;3.20;;;;;;;;;;5091235;28;20048;-63
2023/04/29 12:28:33;;;;;;;6.07;2.60;;;;;;;;;;5069806;28;20049;-64
2023/04/29 12:31:03;;;;;;;5.30;3.08;;;;;;;;;;5069632;28;20195;-63
2023/04/29 12:33:34;;;;;;;6.15;2.92;;;;;;;;;;5072314;28;20102;-64
2023/04/29 12:36:16;;;;;;;6.75;2.97;;;;;;;;;;5069464;28;20536;-64
2023/04/29 12:38:48;;;;;;;4.63;2.70;;;;;;;;;;5037006;28;20053;-64
2023/04/29 12:41:20;;;;;;;6.35;3.22;;;;;;;;;;5069390;28;20044;-63
2023/04/29 12:43:50;;;;;;;7.93;3.42;;;;;;;;;;5019946;28;20083;-61
2023/04/29 12:46:22;;;;;;;5.90;3.00;;;;;;;;;;5052709;28;20369;-62
2023/04/29 12:48:53;;;;;;;6.35;2.83;;;;;;;;;;5069360;28;20068;-61
2023/04/29 12:51:23;;;;;;;7.43;2.65;;;;;;;;;;5052617;28;20056;-63
2023/04/29 12:53:53;;;;;;;5.70;2.72;;;;;;;;;;5069665;28;20417;-63
2023/04/29 12:56:23;;;;;;;4.93;2.50;;;;;;;;;;5004590;28;20067;-63
2023/04/29 12:58:53;;;;;;;5.80;2.85;;;;;;;;;;5053169;28;20052;-62
2023/04/29 13:01:23;;;;;;;9.95;4.32;;;;;;;;;;5052178;28;20051;-63
2023/04/29 13:03:53;;;;;;;6.25;3.13;;;;;;;;;;5069412;28;20492;-61
2023/04/29 13:06:24;;;;;;;5.50;2.97;;;;;;;;;;5035643;28;20056;-64
2023/04/29 13:08:54;;;;;;;6.40;2.83;;;;;;;;;;5069353;28;20045;-62
2023/04/29 13:11:24;;;;;;;4.93;2.53;;;;;;;;;;5068730;28;20055;-62
2023/04/29 13:14:02;;;;;;;4.60;2.60;;;;;;;;;;5097221;28;20052;-62
2023/04/29 13:16:33;;;;;;;7.60;2.85;;;;;;;;;;5093004;28;20080;-62
2023/04/29 13:19:04;;;;;;;5.65;3.17;;;;;;;;;;5093702;28;20071;-61
2023/04/29 13:21:54;;;;;;;6.07;3.33;;;;;;;;;;5048470;28;20094;-61
2023/04/29 13:24:26;;;;;;;5.05;2.70;;;;;;;;;;5048913;28;20053;-62
2023/04/29 13:26:57;;;;;;;5.03;2.95;;;;;;;;;;5048797;28;20065;-62
2023/04/29 13:29:27;;;;;;;5.45;2.65;;;;;;;;;;4999463;28;20524;-62
2023/04/29 13:31:58;;;;;;;5.10;2.80;;;;;;;;;;4999130;28;20059;-62
2023/04/29 13:34:28;;;;;;;5.25;2.75;;;;;;;;;;5048369;28;20667;-62
2023/04/29 13:36:58;;;;;;;4.75;2.70;;;;;;;;;;5048597;28;20053;-62
2023/04/29 13:39:28;;;;;;;5.53;3.03;;;;;;;;;;5031925;28;20045;-64
2023/04/29 13:41:59;;;;;;;4.90;2.42;;;;;;;;;;5032590;28;20061;-62
2023/04/29 13:44:30;;;;;;;5.03;2.40;;;;;;;;;;5049026;28;20049;-62
2023/04/29 13:47:17;;;;;;;7.10;2.75;;;;;;;;;;5048631;28;20222;-63
2023/04/29 13:49:54;;;;;;;5.30;2.85;;;;;;;;;;5048503;28;20060;-64
2023/04/29 13:52:29;;;;;;;4.63;2.42;;;;;;;;;;5028567;28;20056;-62
2023/04/29 13:55:19;;;;;;;5.03;2.88;;;;;;;;;;5068397;28;20049;-63
2023/04/29 13:57:52;;;;;;;4.60;2.70;;;;;;;;;;5028227;28;20520;-63
2023/04/29 14:00:25;;;;;;;5.72;2.60;;;;;;;;;;5029477;28;20053;-62
2023/04/29 14:02:58;;;;;;;5.97;2.63;;;;;;;;;;5001278;28;20107;-63
2023/04/29 14:05:33;;;;;;;6.43;2.38;;;;;;;;;;5016668;28;20060;-62
2023/04/29 14:08:05;;;;;;;5.97;2.70;;;;;;;;;;5015506;28;20045;-63
2023/04/29 14:10:35;;;;;;;5.90;2.67;;;;;;;;;;4998812;28;20064;-62
2023/04/29 14:13:06;;;;;;;4.90;2.45;;;;;;;;;;4988675;28;20515;-62
2023/04/29 14:15:36;;;;;;;4.80;2.50;;;;;;;;;;4957140;28;20427;-64
2023/04/29 14:18:07;;;;;;;6.03;3.00;;;;;;;;;;4989395;28;20062;-62
2023/04/29 14:20:38;;;;;;;3.97;2.53;;;;;;;;;;4969613;28;20525;-62
2023/04/29 14:23:08;;;;;;;4.20;2.00;;;;;;;;;;4937626;28;20478;-62
2023/04/29 14:25:38;;;;;;;4.25;2.22;;;;;;;;;;4952902;28;20046;-63
2023/04/29 14:28:08;;;;;;;5.53;2.55;;;;;;;;;;4937494;28;20467;-62
2023/04/29 14:30:37;;;;;;;5.00;2.35;;;;;;;;;;4951256;28;20058;-64
2023/04/29 14:33:07;;;;;;;4.07;2.25;;;;;;;;;;4988878;28;20069;-63
2023/04/29 14:35:39;;;;;;;6.50;3.03;;;;;;;;;;4971505;28;20062;-62
2023/04/29 14:38:10;;;;;;;5.25;2.33;;;;;;;;;;4988720;28;20414;-62
2023/04/29 14:40:41;;;;;;;5.30;2.33;;;;;;;;;;4949847;29;20455;-62
2023/04/29 14:43:10;;;;;;;3.83;2.00;;;;;;;;;;4950029;29;20683;-63
2023/04/29 14:45:41;;;;;;;4.45;2.17;;;;;;;;;;4965815;28;20055;-61
2023/04/29 14:48:11;;;;;;;3.20;1.70;;;;;;;;;;4918516;29;20059;-64
2023/04/29 14:50:41;;;;;;;3.97;1.95;;;;;;;;;;4968700;28;20416;-64
2023/04/29 14:53:11;;;;;;;4.60;1.88;;;;;;;;;;4988640;28;20467;-62
2023/04/29 14:55:42;;;;;;;4.85;2.58;;;;;;;;;;4988558;28;20061;-62
2023/04/29 14:58:12;;;;;;;3.63;2.00;;;;;;;;;;5026373;28;20821;-62
2023/04/29 15:00:42;;;;;;;4.03;2.33;;;;;;;;;;4998252;28;20464;-62
2023/04/29 15:03:12;;;;;;;4.97;2.45;;;;;;;;;;5047749;28;20053;-62
2023/04/29 15:05:51;;;;;;;4.07;2.20;;;;;;;;;;5017409;28;20053;-62
2023/04/29 15:08:21;;;;;;;4.80;2.28;;;;;;;;;;5047387;28;20060;-64
2023/04/29 15:10:51;;;;;;;5.22;2.45;;;;;;;;;;5047588;28;20433;-63
2023/04/29 15:13:21;;;;;;;5.30;2.22;;;;;;;;;;5061524;28;20057;-63
2023/04/29 15:15:52;;;;;;;3.65;2.13;;;;;;;;;;5071195;28;20517;-62